»·PEaware :: N863CP L70-L52

N863CP :: L70-L52

FLIGHT INFORMATION

Flight Status: Arrived
Operator: Privately registered:
United States
More flights under this callsign
Pilot: Anonymous 14478 (14478)
Aircraft: CESSNA 172 SKYHAWK
(C172)
More flights by this aircraft type
Origin: L70 Agua Dulce
United States
Destination: L52 Oceano Co
United States
More flights between these airports :: More routes between these airports
Route: VICKY GMN FLW
File this flight plan on PilotEdge
Remarks:
Altitude:
(Current/Filed)
8,500ft
Speed:
(Current/Filed)
105kts
Departed: 10-Jul-17 10:10 AM
Arrived: 10-Jul-17 11:21 AM
Distance/Time
Traveled:
119nm/1:11
Distance/Time
To Go:
Arrived

Flight Plot

Page will automatically refresh every two minutes.

Flight plan parsing failed; only flown route is shown


Map Options




Map Legend


Flown Route
Filed Route
Departure Airport
Arrival Airport
Navaid (VOR, NDB)
Fix

Horizontal Profiles

Position Reports

Time Latitude Longitude Heading Altitude Ground
Speed
10-Jul-17 10:05 34.504724 -118.313398 51 2605ft 0kts
10-Jul-17 10:06 34.504724 -118.313398 51 2605ft 0kts
10-Jul-17 10:07 34.504726 -118.313395 51 2605ft 0kts
10-Jul-17 10:08 34.504728 -118.313391 51 2605ft 0kts
10-Jul-17 10:09 34.504731 -118.313387 51 2605ft 0kts
10-Jul-17 10:10 34.504465 -118.312844 128 2605ft 7kts
10-Jul-17 10:11 34.506405 -118.309315 53 2605ft 15kts
10-Jul-17 10:12 34.507716 -118.306994 103 2605ft 6kts
10-Jul-17 10:13 34.499225 -118.319554 232 2989ft 76kts
10-Jul-17 10:14 34.493253 -118.341593 331 3774ft 95kts
10-Jul-17 10:15 34.518428 -118.345420 355 4673ft 89kts
10-Jul-17 10:16 34.544533 -118.346183 356 5604ft 99kts
10-Jul-17 10:17 34.572029 -118.348229 356 6594ft 98kts
10-Jul-17 10:18 34.598392 -118.350581 355 7578ft 90kts
10-Jul-17 10:19 34.624013 -118.352945 356 8133ft 110kts
10-Jul-17 10:20 34.657245 -118.356165 355 8303ft 123kts
10-Jul-17 10:21 34.680485 -118.381082 301 8430ft 124kts
10-Jul-17 10:22 34.695753 -118.418294 292 8445ft 121kts
10-Jul-17 10:23 34.706851 -118.457308 287 8463ft 124kts
10-Jul-17 10:24 34.716740 -118.497140 286 8569ft 124kts
10-Jul-17 10:25 34.726511 -118.537673 286 8610ft 126kts
10-Jul-17 10:26 34.736073 -118.577607 286 8629ft 120kts
10-Jul-17 10:27 34.745812 -118.618110 286 8648ft 129kts
10-Jul-17 10:28 34.755537 -118.658874 286 8658ft 121kts
10-Jul-17 10:29 34.764924 -118.698035 286 8664ft 119kts
10-Jul-17 10:30 34.774351 -118.737440 286 8666ft 123kts
10-Jul-17 10:31 34.784295 -118.778976 286 8660ft 133kts
10-Jul-17 10:32 34.794554 -118.821800 286 8654ft 131kts
10-Jul-17 10:33 34.804415 -118.863909 286 8645ft 129kts
10-Jul-17 10:34 34.814464 -118.904758 286 8633ft 123kts
10-Jul-17 10:35 34.824206 -118.944401 286 8622ft 121kts
10-Jul-17 10:36 34.833860 -118.983753 286 8611ft 121kts
10-Jul-17 10:37 34.843473 -119.023041 286 8636ft 118kts
10-Jul-17 10:38 34.853695 -119.064115 292 8630ft 134kts
10-Jul-17 10:39 34.869130 -119.101917 294 8621ft 118kts
10-Jul-17 10:40 34.881762 -119.138170 292 8604ft 115kts
10-Jul-17 10:41 34.893927 -119.176523 290 8598ft 127kts
10-Jul-17 10:42 34.905665 -119.215651 290 8581ft 117kts
10-Jul-17 10:43 34.916528 -119.252738 289 8583ft 115kts
10-Jul-17 10:44 34.927266 -119.289698 289 8575ft 115kts
10-Jul-17 10:45 34.938328 -119.327945 289 8572ft 125kts
10-Jul-17 10:46 34.950258 -119.369080 289 8561ft 131kts
10-Jul-17 10:47 34.962414 -119.411224 289 8548ft 132kts
10-Jul-17 10:48 34.973748 -119.450776 289 8549ft 117kts
10-Jul-17 10:49 34.984399 -119.487589 289 8542ft 114kts
10-Jul-17 10:50 34.994870 -119.524099 289 8539ft 113kts
10-Jul-17 10:51 35.005345 -119.560401 290 8535ft 113kts
10-Jul-17 10:52 35.015998 -119.597287 289 8481ft 115kts
10-Jul-17 10:53 35.026505 -119.633967 289 8479ft 113kts
10-Jul-17 10:54 35.036977 -119.670262 289 8482ft 113kts
10-Jul-17 10:55 35.047404 -119.706552 289 8482ft 113kts
10-Jul-17 10:56 35.057872 -119.742980 289 8482ft 113kts
10-Jul-17 10:57 35.068307 -119.779295 289 8482ft 113kts
10-Jul-17 10:58 35.079784 -119.819233 289 8492ft 130kts
10-Jul-17 10:59 35.088252 -119.859971 271 8497ft 119kts
10-Jul-17 11:00 35.091549 -119.899317 277 8494ft 114kts
10-Jul-17 11:01 35.093890 -119.937719 266 8496ft 113kts
10-Jul-17 11:02 35.094412 -119.979206 270 8497ft 130kts
10-Jul-17 11:03 35.095505 -120.020782 287 8497ft 116kts
10-Jul-17 11:04 35.100800 -120.058427 273 8510ft 113kts
10-Jul-17 11:05 35.102395 -120.096800 272 8506ft 112kts
10-Jul-17 11:06 35.103900 -120.135621 273 8493ft 118kts
10-Jul-17 11:07 35.105812 -120.175212 273 8510ft 114kts
10-Jul-17 11:08 35.107071 -120.214139 277 8362ft 121kts
10-Jul-17 11:09 35.108835 -120.257454 270 7958ft 132kts
10-Jul-17 11:10 35.110770 -120.301629 271 7574ft 126kts
10-Jul-17 11:11 35.110860 -120.345165 264 7151ft 128kts
10-Jul-17 11:12 35.108250 -120.389168 266 6690ft 127kts
10-Jul-17 11:13 35.107272 -120.429238 267 6175ft 109kts
10-Jul-17 11:14 35.099319 -120.461840 242 5684ft 97kts
10-Jul-17 11:15 35.085861 -120.491759 232 5169ft 107kts
10-Jul-17 11:16 35.067849 -120.521172 232 4465ft 106kts
10-Jul-17 11:17 35.050175 -120.550284 232 3765ft 107kts
10-Jul-17 11:18 35.040455 -120.585604 274 3065ft 115kts
10-Jul-17 11:19 35.047324 -120.624336 282 2376ft 117kts
10-Jul-17 11:20 35.057718 -120.657759 345 1735ft 103kts
10-Jul-17 11:21 35.083516 -120.644962 56 1162ft 101kts
10-Jul-17 11:22 35.081941 -120.617731 47 986ft 69kts
10-Jul-17 11:23 35.095424 -120.611668 304 405ft 60kts
10-Jul-17 11:24 35.102399 -120.623964 307 17ft 9kts
10-Jul-17 11:25 35.102801 -120.623891 31 17ft 0kts

Navigation Log

Ident Type
Flight plan parsing failed, navigation log unavailable